Time;durP1;ratioP1;P1;durP2;ratioP2;P2;SDS_P1;SDS_P2;PMS_P1;PMS_P2;Temp;Humidity;BMP_temperature;BMP_pressure;BME280_temperature;BME280_humidity;BME280_pressure;Samples;Min_cycle;Max_cycle;Signal;HPM_P1;HPM_P2
2022/03/10 00:02:06;;;;;;;;;;;2.30;36.60;;;;;;5049232;28;19977;-81
2022/03/10 00:04:33;;;;;;;;;;;2.30;37.10;;;;;;5053191;28;20075;-82
2022/03/10 00:07:02;;;;;;;;;;;2.30;37.10;;;;;;5036347;28;20362;-77
2022/03/10 00:09:29;;;;;;;;;;;2.20;36.80;;;;;;5053870;28;19948;-77
2022/03/10 00:11:55;;;;;;;;;;;2.20;37.30;;;;;;5054319;28;20015;-80
2022/03/10 00:14:21;;;;;;;;;;;2.20;37.40;;;;;;5052897;28;19940;-80
2022/03/10 00:16:48;;;;;;;;;;;2.20;37.40;;;;;;5054886;28;19960;-80
2022/03/10 00:19:14;;;;;;;;;;;2.20;37.60;;;;;;5054649;28;19967;-80
2022/03/10 00:21:40;;;;;;;;;;;2.20;37.60;;;;;;5069680;28;19924;-80
2022/03/10 00:24:06;;;;;;;;;;;2.10;37.60;;;;;;5041472;28;19951;-81
2022/03/10 00:26:32;;;;;;;;;;;2.10;37.10;;;;;;5034777;28;20343;-77
2022/03/10 00:28:58;;;;;;;;;;;2.10;37.60;;;;;;5053185;28;19931;-81
2022/03/10 00:31:24;;;;;;;;;;;2.10;37.60;;;;;;5035210;28;19925;-77
2022/03/10 00:33:50;;;;;;;;;;;2.00;37.80;;;;;;5052467;28;19947;-81
2022/03/10 00:36:16;;;;;;;;;;;2.00;38.00;;;;;;5069457;28;19925;-77
2022/03/10 00:38:42;;;;;;;;;;;2.00;38.20;;;;;;5053583;28;19920;-77
2022/03/10 00:41:09;;;;;;;;;;;1.90;37.80;;;;;;5039860;28;19974;-77
2022/03/10 00:43:36;;;;;;;;;;;1.90;38.20;;;;;;5054562;28;19924;-81
2022/03/10 00:46:02;;;;;;;;;;;1.80;38.20;;;;;;5067835;28;19970;-81
2022/03/10 00:48:28;;;;;;;;;;;1.80;38.50;;;;;;5060341;28;20569;-80
2022/03/10 00:50:54;;;;;;;;;;;1.80;38.50;;;;;;5033905;28;19921;-77
2022/03/10 00:53:20;;;;;;;;;;;1.80;38.20;;;;;;5055988;28;19939;-81
2022/03/10 00:55:47;;;;;;;;;;;1.80;38.70;;;;;;5067819;28;20006;-77
2022/03/10 00:58:12;;;;;;;;;;;1.70;38.30;;;;;;5052609;28;19921;-77
2022/03/10 01:00:38;;;;;;;;;;;1.80;38.70;;;;;;5052558;28;19931;-81
2022/03/10 01:03:08;;;;;;;;;;;1.70;38.80;;;;;;5051008;28;19987;-81
2022/03/10 01:05:34;;;;;;;;;;;1.70;38.80;;;;;;5056804;28;19925;-80
2022/03/10 01:08:00;;;;;;;;;;;1.60;38.40;;;;;;5047389;28;19932;-81
2022/03/10 01:10:27;;;;;;;;;;;1.60;38.90;;;;;;5058253;28;20699;-77
2022/03/10 01:12:53;;;;;;;;;;;1.50;38.90;;;;;;5054594;28;19932;-77
2022/03/10 01:15:21;;;;;;;;;;;1.50;39.00;;;;;;5044641;28;19931;-78
2022/03/10 01:17:47;;;;;;;;;;;1.50;39.10;;;;;;5049854;28;19920;-81
2022/03/10 01:20:13;;;;;;;;;;;1.50;38.80;;;;;;5062043;28;20003;-81
2022/03/10 01:22:39;;;;;;;;;;;1.50;39.30;;;;;;5051099;28;20019;-77
2022/03/10 01:25:07;;;;;;;;;;;1.50;39.30;;;;;;5042105;28;20381;-77
2022/03/10 01:27:33;;;;;;;;;;;1.40;39.20;;;;;;5059914;28;20030;-81
2022/03/10 01:30:00;;;;;;;;;;;1.40;39.30;;;;;;5044413;28;19916;-77
2022/03/10 01:32:26;;;;;;;;;;;1.30;39.30;;;;;;5040527;28;19916;-77
2022/03/10 01:34:53;;;;;;;;;;;1.30;39.10;;;;;;5045276;28;20008;-81
2022/03/10 01:37:19;;;;;;;;;;;1.30;39.70;;;;;;5032885;28;19921;-81
2022/03/10 01:39:46;;;;;;;;;;;1.30;39.80;;;;;;5043009;28;20436;-81
2022/03/10 01:42:12;;;;;;;;;;;1.30;39.70;;;;;;5018825;28;20017;-81
2022/03/10 01:44:38;;;;;;;;;;;1.30;39.80;;;;;;5051936;28;19960;-77
2022/03/10 01:49:50;;;;;;;;;;;1.20;39.40;;;;;;5065677;28;19924;-80
2022/03/10 01:52:20;;;;;;;;;;;1.30;40.00;;;;;;5050484;28;19955;-80
2022/03/10 01:54:46;;;;;;;;;;;1.30;39.90;;;;;;5033697;28;19934;-77
2022/03/10 01:57:12;;;;;;;;;;;1.20;39.90;;;;;;5032875;28;19925;-80
2022/03/10 01:59:40;;;;;;;;;;;1.20;40.20;;;;;;5050490;28;19921;-77
2022/03/10 02:02:06;;;;;;;;;;;1.10;40.00;;;;;;5050649;28;19924;-77
2022/03/10 02:04:33;;;;;;;;;;;1.10;39.70;;;;;;5068787;28;19947;-77
2022/03/10 02:07:02;;;;;;;;;;;1.10;39.80;;;;;;5050395;28;19925;-80
2022/03/10 02:12:13;;;;;;;;;;;1.00;40.30;;;;;;5050733;28;19974;-77
2022/03/10 02:17:25;;;;;;;;;;;0.90;40.30;;;;;;5049586;28;20396;-80
2022/03/10 02:19:54;;;;;;;;;;;0.90;40.40;;;;;;5068506;28;19924;-77
2022/03/10 02:22:21;;;;;;;;;;;0.90;40.30;;;;;;5050960;28;19967;-76
2022/03/10 02:24:48;;;;;;;;;;;0.90;40.50;;;;;;5066167;28;19951;-80
2022/03/10 02:27:34;;;;;;;;;;;0.80;40.50;;;;;;5053147;28;20209;-80
2022/03/10 02:30:01;;;;;;;;;;;0.80;40.60;;;;;;5052282;28;19920;-77
2022/03/10 02:32:28;;;;;;;;;;;0.90;40.70;;;;;;5038886;28;19992;-81
2022/03/10 02:34:54;;;;;;;;;;;0.90;40.70;;;;;;5037994;28;20286;-80
2022/03/10 02:37:20;;;;;;;;;;;0.80;40.50;;;;;;5060399;28;19924;-80
2022/03/10 02:39:46;;;;;;;;;;;0.80;40.30;;;;;;5059646;28;19924;-80
2022/03/10 02:42:13;;;;;;;;;;;0.70;40.30;;;;;;5062889;28;19932;-76
2022/03/10 02:44:58;;;;;;;;;;;0.70;40.90;;;;;;5069758;28;19920;-77
2022/03/10 02:47:24;;;;;;;;;;;0.80;40.90;;;;;;5058808;28;20420;-76
2022/03/10 02:49:50;;;;;;;;;;;0.80;41.00;;;;;;5055184;28;19924;-81
2022/03/10 02:52:16;;;;;;;;;;;0.70;41.10;;;;;;5035738;28;19925;-78
2022/03/10 02:54:43;;;;;;;;;;;0.70;41.20;;;;;;5037591;28;19924;-80
2022/03/10 02:57:09;;;;;;;;;;;0.60;41.30;;;;;;5035903;28;19931;-78
2022/03/10 02:59:35;;;;;;;;;;;0.60;41.80;;;;;;5055943;28;19920;-76
2022/03/10 03:02:02;;;;;;;;;;;0.60;41.60;;;;;;5058449;28;20332;-80
2022/03/10 03:04:28;;;;;;;;;;;0.60;41.70;;;;;;5053416;28;20019;-76
2022/03/10 03:06:54;;;;;;;;;;;0.50;41.70;;;;;;5053843;28;19925;-77
2022/03/10 03:09:20;;;;;;;;;;;0.50;41.70;;;;;;5036886;28;19929;-80
2022/03/10 03:11:46;;;;;;;;;;;0.50;41.60;;;;;;5052369;28;19929;-80
2022/03/10 03:14:11;;;;;;;;;;;0.50;41.50;;;;;;5052218;28;19921;-80
2022/03/10 03:16:38;;;;;;;;;;;0.50;41.70;;;;;;5069881;28;19925;-77
2022/03/10 03:19:04;;;;;;;;;;;0.50;41.70;;;;;;5036935;28;19959;-78
2022/03/10 03:21:31;;;;;;;;;;;0.40;42.90;;;;;;5055355;28;19924;-76
2022/03/10 03:23:57;;;;;;;;;;;0.50;42.10;;;;;;5063755;28;19956;-80
2022/03/10 03:26:22;;;;;;;;;;;0.40;42.40;;;;;;5058798;28;19921;-76
2022/03/10 03:28:48;;;;;;;;;;;0.40;42.40;;;;;;5064933;28;19925;-77
2022/03/10 03:31:14;;;;;;;;;;;0.40;42.30;;;;;;5057248;28;19982;-76
2022/03/10 03:33:40;;;;;;;;;;;0.40;42.30;;;;;;5036648;28;19925;-76
2022/03/10 03:36:07;;;;;;;;;;;0.40;42.30;;;;;;5043847;28;19928;-80
2022/03/10 03:38:33;;;;;;;;;;;0.30;41.80;;;;;;5053878;28;19921;-77
2022/03/10 03:40:59;;;;;;;;;;;0.30;42.20;;;;;;5050693;28;19925;-76
2022/03/10 03:43:25;;;;;;;;;;;0.40;42.30;;;;;;5052770;28;20051;-76
2022/03/10 03:45:51;;;;;;;;;;;0.30;42.30;;;;;;5051063;28;19924;-77
2022/03/10 03:48:17;;;;;;;;;;;0.30;42.50;;;;;;5035077;28;19933;-80
2022/03/10 03:50:43;;;;;;;;;;;0.30;42.50;;;;;;5054424;28;20726;-80
2022/03/10 03:53:09;;;;;;;;;;;0.30;42.40;;;;;;5053440;28;20369;-80
2022/03/10 03:55:35;;;;;;;;;;;0.20;42.40;;;;;;5069974;28;20019;-76
2022/03/10 03:58:01;;;;;;;;;;;0.20;42.50;;;;;;5059942;28;19932;-80
2022/03/10 04:00:27;;;;;;;;;;;0.20;42.60;;;;;;5051984;28;19929;-76
2022/03/10 04:02:54;;;;;;;;;;;0.20;42.00;;;;;;5070212;28;20298;-80
2022/03/10 04:05:20;;;;;;;;;;;0.20;42.60;;;;;;5037123;28;19916;-77
2022/03/10 04:07:46;;;;;;;;;;;0.10;42.90;;;;;;5050846;28;19932;-78
2022/03/10 04:10:12;;;;;;;;;;;0.20;42.90;;;;;;5054813;28;20146;-80
2022/03/10 04:12:38;;;;;;;;;;;0.10;42.30;;;;;;5028802;28;19935;-81
2022/03/10 04:15:05;;;;;;;;;;;0.10;42.90;;;;;;5061281;28;20015;-80
2022/03/10 04:17:31;;;;;;;;;;;0.10;42.80;;;;;;5052333;28;20012;-77
2022/03/10 04:19:57;;;;;;;;;;;0.10;42.90;;;;;;5068768;28;19924;-80
2022/03/10 04:22:23;;;;;;;;;;;0.10;43.00;;;;;;5061692;28;19935;-80
2022/03/10 04:24:48;;;;;;;;;;;0.10;43.10;;;;;;5053912;28;19925;-80
2022/03/10 04:27:14;;;;;;;;;;;0.00;43.00;;;;;;5052019;28;19985;-76
2022/03/10 04:29:40;;;;;;;;;;;0.00;43.00;;;;;;5056615;28;19924;-80
2022/03/10 04:32:06;;;;;;;;;;;0.00;43.10;;;;;;5065932;28;19931;-77
2022/03/10 04:34:32;;;;;;;;;;;-0.10;42.70;;;;;;5051967;28;19920;-80
2022/03/10 04:36:58;;;;;;;;;;;0.00;43.30;;;;;;5053185;28;19936;-80
2022/03/10 04:39:24;;;;;;;;;;;0.00;43.20;;;;;;5053848;28;19931;-76
2022/03/10 04:41:51;;;;;;;;;;;0.00;43.20;;;;;;5053048;28;19925;-76
2022/03/10 04:44:17;;;;;;;;;;;-0.10;43.30;;;;;;5050117;28;19943;-81
2022/03/10 04:46:43;;;;;;;;;;;-0.10;43.50;;;;;;5054687;28;20030;-80
2022/03/10 04:49:09;;;;;;;;;;;-0.20;43.50;;;;;;5052720;28;20005;-77
2022/03/10 04:51:35;;;;;;;;;;;-0.20;43.80;;;;;;5053220;28;19925;-77
2022/03/10 04:54:01;;;;;;;;;;;-0.20;43.70;;;;;;5035802;28;19924;-79
2022/03/10 04:56:26;;;;;;;;;;;-0.30;43.80;;;;;;5054065;28;20332;-80
2022/03/10 04:58:52;;;;;;;;;;;-0.40;44.00;;;;;;5051518;28;19925;-77
2022/03/10 05:01:18;;;;;;;;;;;-0.50;44.40;;;;;;5050090;28;19928;-80
2022/03/10 05:03:44;;;;;;;;;;;-0.60;44.60;;;;;;5052829;28;19924;-80
2022/03/10 05:06:10;;;;;;;;;;;-0.60;44.60;;;;;;5052326;28;20292;-80
2022/03/10 05:08:36;;;;;;;;;;;-0.60;44.50;;;;;;5052324;28;19971;-80
2022/03/10 05:11:02;;;;;;;;;;;-0.60;44.30;;;;;;5051306;28;19925;-77
2022/03/10 05:13:28;;;;;;;;;;;-0.60;44.20;;;;;;5060048;28;20388;-77
2022/03/10 05:15:55;;;;;;;;;;;-0.60;44.00;;;;;;5062184;28;19932;-80
2022/03/10 05:18:21;;;;;;;;;;;-0.60;43.90;;;;;;5051600;28;19931;-77
2022/03/10 05:20:47;;;;;;;;;;;-0.60;44.60;;;;;;5054505;28;19924;-77
2022/03/10 05:23:12;;;;;;;;;;;-0.60;44.40;;;;;;5065887;28;19931;-80
2022/03/10 05:25:40;;;;;;;;;;;-0.60;44.40;;;;;;5034592;28;19924;-80
2022/03/10 05:28:13;;;;;;;;;;;-0.60;44.10;;;;;;5035288;28;20293;-76
2022/03/10 05:30:39;;;;;;;;;;;-0.60;44.10;;;;;;5051880;28;19924;-77
2022/03/10 05:33:05;;;;;;;;;;;-0.60;44.00;;;;;;5051260;28;20431;-76
2022/03/10 05:35:31;;;;;;;;;;;-0.60;44.10;;;;;;5050350;28;19928;-77
2022/03/10 05:37:57;;;;;;;;;;;-0.50;44.10;;;;;;5051403;28;19925;-80
2022/03/10 05:40:24;;;;;;;;;;;-0.50;44.20;;;;;;5063872;28;19974;-77
2022/03/10 05:42:53;;;;;;;;;;;-0.50;44.00;;;;;;5053463;28;19925;-80
2022/03/10 05:45:20;;;;;;;;;;;-0.50;44.20;;;;;;5034010;28;20370;-80
2022/03/10 05:47:48;;;;;;;;;;;-0.50;43.70;;;;;;5033831;28;20282;-77
2022/03/10 05:50:14;;;;;;;;;;;-0.50;44.40;;;;;;5051309;28;19932;-76
2022/03/10 05:52:41;;;;;;;;;;;-0.50;43.80;;;;;;5050356;28;19924;-80
2022/03/10 05:55:07;;;;;;;;;;;-0.40;44.30;;;;;;5035716;28;20351;-80
2022/03/10 05:57:33;;;;;;;;;;;-0.40;44.20;;;;;;5044975;28;19925;-76
2022/03/10 05:59:59;;;;;;;;;;;-0.40;44.10;;;;;;5052099;28;19973;-80
2022/03/10 06:02:25;;;;;;;;;;;-0.30;44.20;;;;;;5051081;28;19920;-76
2022/03/10 06:04:51;;;;;;;;;;;-0.20;44.30;;;;;;5052528;28;19924;-80
2022/03/10 06:07:17;;;;;;;;;;;-0.20;44.50;;;;;;5056097;28;19978;-76
2022/03/10 06:09:43;;;;;;;;;;;-0.20;44.40;;;;;;5038074;28;19933;-80
2022/03/10 06:12:09;;;;;;;;;;;-0.30;44.30;;;;;;5056231;28;19947;-80
2022/03/10 06:14:36;;;;;;;;;;;-0.20;44.60;;;;;;5056937;28;19920;-80
2022/03/10 06:17:03;;;;;;;;;;;-0.10;44.50;;;;;;5054209;28;19930;-77
2022/03/10 06:19:28;;;;;;;;;;;0.00;44.50;;;;;;5053886;28;19978;-76
2022/03/10 06:21:54;;;;;;;;;;;0.00;44.40;;;;;;5053253;28;19921;-76
2022/03/10 06:24:20;;;;;;;;;;;0.20;44.40;;;;;;5052697;28;19994;-80
2022/03/10 06:26:46;;;;;;;;;;;0.20;44.20;;;;;;5055030;28;20312;-77
2022/03/10 06:29:13;;;;;;;;;;;0.40;44.10;;;;;;5055735;28;20366;-77
2022/03/10 06:31:40;;;;;;;;;;;0.50;44.10;;;;;;5055595;28;20016;-81
2022/03/10 06:34:06;;;;;;;;;;;0.60;43.80;;;;;;5036929;28;19947;-81
2022/03/10 06:36:32;;;;;;;;;;;0.80;43.80;;;;;;5049843;28;19924;-77
2022/03/10 06:38:58;;;;;;;;;;;1.00;44.30;;;;;;5059912;28;20343;-76
2022/03/10 06:41:24;;;;;;;;;;;1.20;44.00;;;;;;5053054;28;20293;-81
2022/03/10 06:43:50;;;;;;;;;;;1.40;43.90;;;;;;5055841;28;19924;-77
2022/03/10 06:46:16;;;;;;;;;;;1.60;43.80;;;;;;5036058;28;19925;-80
2022/03/10 06:48:42;;;;;;;;;;;1.80;43.60;;;;;;5055609;28;19931;-76
2022/03/10 06:51:08;;;;;;;;;;;1.90;43.60;;;;;;5055502;28;19921;-77
2022/03/10 06:53:34;;;;;;;;;;;2.10;43.50;;;;;;5037373;28;19967;-80
2022/03/10 06:56:00;;;;;;;;;;;2.30;43.40;;;;;;5053363;28;19960;-76
2022/03/10 06:58:26;;;;;;;;;;;2.50;43.40;;;;;;5070268;28;19924;-82
2022/03/10 07:00:52;;;;;;;;;;;2.70;43.50;;;;;;5067362;28;19928;-77
2022/03/10 07:03:19;;;;;;;;;;;2.90;43.40;;;;;;5037362;28;19920;-79
2022/03/10 07:05:45;;;;;;;;;;;3.10;43.40;;;;;;5038072;28;20231;-76
2022/03/10 07:08:11;;;;;;;;;;;3.30;43.70;;;;;;5054210;28;19932;-77
2022/03/10 07:10:37;;;;;;;;;;;3.50;43.60;;;;;;5051248;28;19927;-81
2022/03/10 07:13:03;;;;;;;;;;;3.70;43.40;;;;;;5072200;28;20448;-77
2022/03/10 07:15:29;;;;;;;;;;;3.90;43.10;;;;;;5053232;28;19929;-82
2022/03/10 07:17:55;;;;;;;;;;;4.10;43.00;;;;;;5054203;28;19923;-82
2022/03/10 07:20:21;;;;;;;;;;;4.30;43.00;;;;;;5056061;28;19925;-77
2022/03/10 07:22:47;;;;;;;;;;;4.40;42.70;;;;;;5053591;28;19987;-82
2022/03/10 07:25:14;;;;;;;;;;;4.50;42.00;;;;;;5050036;28;19931;-77
2022/03/10 07:27:40;;;;;;;;;;;4.70;41.80;;;;;;5070033;28;19925;-77
2022/03/10 07:30:07;;;;;;;;;;;4.90;42.20;;;;;;5043601;28;19917;-77
2022/03/10 07:32:33;;;;;;;;;;;5.00;41.60;;;;;;5041021;28;19921;-77
2022/03/10 07:35:01;;;;;;;;;;;5.20;41.70;;;;;;5050098;28;19925;-77
2022/03/10 07:37:27;;;;;;;;;;;5.30;41.30;;;;;;5037880;28;19927;-77
2022/03/10 07:39:53;;;;;;;;;;;5.50;41.20;;;;;;5038140;28;19932;-81
2022/03/10 07:42:19;;;;;;;;;;;5.70;41.20;;;;;;5052168;28;20674;-82
2022/03/10 07:44:45;;;;;;;;;;;5.80;40.80;;;;;;5056154;28;20057;-78
2022/03/10 07:47:11;;;;;;;;;;;6.00;40.70;;;;;;5057213;28;20393;-81
2022/03/10 07:49:37;;;;;;;;;;;6.10;40.40;;;;;;5067955;28;19920;-77
2022/03/10 07:52:04;;;;;;;;;;;6.20;40.10;;;;;;5036213;28;20278;-82
2022/03/10 07:54:30;;;;;;;;;;;6.40;39.80;;;;;;5054080;28;20200;-78
2022/03/10 07:56:56;;;;;;;;;;;6.60;39.70;;;;;;5036809;28;19920;-77
2022/03/10 07:59:23;;;;;;;;;;;6.80;39.60;;;;;;5035310;28;19937;-82
2022/03/10 08:01:49;;;;;;;;;;;6.90;39.30;;;;;;5051792;28;19970;-81
2022/03/10 08:04:15;;;;;;;;;;;7.10;38.90;;;;;;5054460;28;19932;-78
2022/03/10 08:06:41;;;;;;;;;;;7.60;38.60;;;;;;5035940;28;19929;-77
2022/03/10 08:09:10;;;;;;;;;;;8.90;36.60;;;;;;5037185;28;19986;-81
2022/03/10 08:11:38;;;;;;;;;;;10.20;35.90;;;;;;5054804;28;19921;-81
2022/03/10 08:14:04;;;;;;;;;;;11.20;35.10;;;;;;5043960;28;20012;-81
2022/03/10 08:16:31;;;;;;;;;;;12.10;34.80;;;;;;5033247;28;20325;-81
2022/03/10 08:18:58;;;;;;;;;;;12.90;34.30;;;;;;5033527;28;19925;-82
2022/03/10 08:21:24;;;;;;;;;;;13.80;33.90;;;;;;5023703;28;19925;-79
2022/03/10 08:23:50;;;;;;;;;;;14.60;33.30;;;;;;5050690;28;19925;-82
2022/03/10 08:26:17;;;;;;;;;;;15.10;32.50;;;;;;5040950;28;19925;-82
2022/03/10 08:28:44;;;;;;;;;;;15.80;31.30;;;;;;5031912;28;19924;-79
2022/03/10 08:31:10;;;;;;;;;;;16.40;30.20;;;;;;5034296;28;19929;-81
2022/03/10 08:33:37;;;;;;;;;;;17.10;29.80;;;;;;5037473;28;19936;-78
2022/03/10 08:36:06;;;;;;;;;;;17.80;29.30;;;;;;5028200;28;20377;-83
2022/03/10 08:38:32;;;;;;;;;;;18.20;28.50;;;;;;5036737;28;19929;-78
2022/03/10 08:40:59;;;;;;;;;;;18.90;28.30;;;;;;5030771;28;19979;-83
2022/03/10 08:43:28;;;;;;;;;;;19.40;27.70;;;;;;5015826;28;20355;-78
2022/03/10 08:46:14;;;;;;;;;;;20.10;27.10;;;;;;5032479;28;19981;-79
2022/03/10 08:48:44;;;;;;;;;;;20.80;26.30;;;;;;5048730;28;19925;-78
2022/03/10 08:51:10;;;;;;;;;;;21.40;25.40;;;;;;5033288;28;19929;-84
2022/03/10 08:53:36;;;;;;;;;;;21.70;24.40;;;;;;5050337;28;19928;-78
2022/03/10 08:56:03;;;;;;;;;;;22.10;24.50;;;;;;5013341;28;19948;-84
2022/03/10 08:58:30;;;;;;;;;;;22.60;23.90;;;;;;5048339;28;19925;-79
2022/03/10 09:00:56;;;;;;;;;;;23.40;22.80;;;;;;5031526;28;20306;-78
2022/03/10 09:03:22;;;;;;;;;;;23.70;22.20;;;;;;5049857;28;19925;-78
2022/03/10 09:05:47;;;;;;;;;;;24.30;22.00;;;;;;5030766;28;19925;-84
2022/03/10 09:08:14;;;;;;;;;;;24.70;21.30;;;;;;5035255;28;20345;-79
2022/03/10 09:10:40;;;;;;;;;;;25.10;20.60;;;;;;5031369;28;19925;-83
2022/03/10 09:13:06;;;;;;;;;;;25.30;20.20;;;;;;5032989;28;20016;-78
2022/03/10 09:15:32;;;;;;;;;;;24.90;19.20;;;;;;5052548;28;20341;-79
2022/03/10 09:17:58;;;;;;;;;;;25.30;19.00;;;;;;5064553;28;19921;-85
2022/03/10 09:20:24;;;;;;;;;;;25.40;18.80;;;;;;5063043;28;19958;-85
2022/03/10 09:22:50;;;;;;;;;;;24.90;19.20;;;;;;5060552;28;19920;-78
2022/03/10 09:25:16;;;;;;;;;;;23.60;19.40;;;;;;5062399;28;19932;-78
2022/03/10 09:27:42;;;;;;;;;;;24.20;18.70;;;;;;5040798;28;19925;-86
2022/03/10 09:30:10;;;;;;;;;;;23.60;19.30;;;;;;5064341;28;20412;-78
2022/03/10 09:32:38;;;;;;;;;;;22.40;19.50;;;;;;5052142;28;19960;-78
2022/03/10 09:35:05;;;;;;;;;;;22.20;19.40;;;;;;5067241;28;19925;-85
2022/03/10 09:37:31;;;;;;;;;;;21.60;20.10;;;;;;5036049;28;19939;-82
2022/03/10 09:39:57;;;;;;;;;;;22.00;19.60;;;;;;5051951;28;19928;-78
2022/03/10 09:42:28;;;;;;;;;;;22.20;19.50;;;;;;5052014;28;19978;-84
2022/03/10 09:44:58;;;;;;;;;;;21.60;19.50;;;;;;5051357;28;19928;-79
2022/03/10 09:47:24;;;;;;;;;;;20.70;19.90;;;;;;5047979;28;20240;-80
2022/03/10 09:49:51;;;;;;;;;;;20.40;19.90;;;;;;5030228;28;20459;-83
2022/03/10 09:52:18;;;;;;;;;;;20.70;19.80;;;;;;5053361;28;20309;-82
2022/03/10 09:54:44;;;;;;;;;;;20.40;19.70;;;;;;5052156;28;19924;-79
2022/03/10 09:57:13;;;;;;;;;;;20.80;19.70;;;;;;5068992;28;19921;-78
2022/03/10 09:59:58;;;;;;;;;;;20.90;19.40;;;;;;5066157;28;20348;-79
2022/03/10 10:02:27;;;;;;;;;;;22.00;18.80;;;;;;5069777;28;19947;-78
2022/03/10 10:04:53;;;;;;;;;;;23.30;18.00;;;;;;5051581;28;19924;-78
2022/03/10 10:07:28;;;;;;;;;;;23.60;17.60;;;;;;5057257;28;19928;-83
2022/03/10 10:09:56;;;;;;;;;;;24.50;17.10;;;;;;5055364;28;19936;-78
2022/03/10 10:12:40;;;;;;;;;;;25.40;16.40;;;;;;5068542;28;20020;-85
2022/03/10 10:15:09;;;;;;;;;;;26.90;15.30;;;;;;5051535;28;19920;-84
2022/03/10 10:17:35;;;;;;;;;;;27.90;14.60;;;;;;5052898;28;19928;-83
2022/03/10 10:20:01;;;;;;;;;;;27.80;14.90;;;;;;5062376;28;20415;-83
2022/03/10 10:22:28;;;;;;;;;;;26.80;15.60;;;;;;5066554;28;20011;-84
2022/03/10 10:25:14;;;;;;;;;;;26.10;16.30;;;;;;5066416;28;19951;-85
2022/03/10 10:27:40;;;;;;;;;;;25.80;16.30;;;;;;5067374;28;19924;-83
2022/03/10 10:30:07;;;;;;;;;;;24.80;17.10;;;;;;5056788;28;20443;-78
2022/03/10 10:35:33;;;;;;;;;;;23.60;17.10;;;;;;5050668;28;19931;-79
2022/03/10 10:38:00;;;;;;;;;;;22.50;17.50;;;;;;5050934;28;19931;-78
2022/03/10 10:40:32;;;;;;;;;;;22.10;18.00;;;;;;5062477;28;20015;-86
2022/03/10 10:43:03;;;;;;;;;;;23.20;17.10;;;;;;5056034;28;19924;-84
2022/03/10 10:45:36;;;;;;;;;;;23.20;16.80;;;;;;5050098;28;19929;-78
2022/03/10 10:48:20;;;;;;;;;;;22.90;16.60;;;;;;5051742;28;19920;-82
2022/03/10 10:50:47;;;;;;;;;;;22.40;17.00;;;;;;5062921;28;19924;-80
2022/03/10 10:53:33;;;;;;;;;;;23.00;16.80;;;;;;5059306;28;20019;-78
2022/03/10 10:55:59;;;;;;;;;;;25.30;15.40;;;;;;5038401;28;20000;-78
2022/03/10 10:58:26;;;;;;;;;;;25.30;15.30;;;;;;5059653;28;19924;-83
2022/03/10 11:00:52;;;;;;;;;;;25.00;15.50;;;;;;5058971;28;19925;-83
2022/03/10 11:03:37;;;;;;;;;;;24.40;16.00;;;;;;5056255;28;20460;-78
2022/03/10 11:06:03;;;;;;;;;;;23.90;15.60;;;;;;5053466;28;19932;-83
2022/03/10 11:08:29;;;;;;;;;;;23.30;16.10;;;;;;5054700;28;19927;-78
2022/03/10 11:10:55;;;;;;;;;;;24.00;15.50;;;;;;5053741;28;20286;-79
2022/03/10 11:13:23;;;;;;;;;;;22.60;15.90;;;;;;5053657;28;19931;-78
2022/03/10 11:15:50;;;;;;;;;;;23.20;16.00;;;;;;5054258;28;19929;-78
2022/03/10 11:18:21;;;;;;;;;;;24.30;15.50;;;;;;5043061;28;19920;-84
2022/03/10 11:20:50;;;;;;;;;;;24.80;15.10;;;;;;5071479;28;19924;-79
2022/03/10 11:23:54;;;;;;;;;;;25.50;14.60;;;;;;5048389;28;19921;-85
2022/03/10 11:26:58;;;;;;;;;;;24.60;14.90;;;;;;5052231;28;19929;-78
2022/03/10 11:29:26;;;;;;;;;;;23.00;15.90;;;;;;5056169;28;19924;-84
2022/03/10 11:31:53;;;;;;;;;;;22.10;16.50;;;;;;5035029;28;19936;-80
2022/03/10 11:34:45;;;;;;;;;;;21.30;16.90;;;;;;5046577;28;19925;-78
2022/03/10 11:37:12;;;;;;;;;;;22.20;16.70;;;;;;5056190;28;19925;-81
2022/03/10 11:39:57;;;;;;;;;;;22.00;16.30;;;;;;5054463;28;19960;-85
2022/03/10 11:42:24;;;;;;;;;;;23.40;15.70;;;;;;5067888;28;19928;-79
2022/03/10 11:45:24;;;;;;;;;;;22.60;15.70;;;;;;5071900;28;19917;-84
2022/03/10 11:47:50;;;;;;;;;;;21.20;16.50;;;;;;5052730;28;19936;-84
2022/03/10 11:50:34;;;;;;;;;;;20.70;17.20;;;;;;5051169;28;19921;-78
2022/03/10 11:53:22;;;;;;;;;;;22.50;16.40;;;;;;5068874;28;20289;-79
2022/03/10 12:01:19;;;;;;;;;;;26.10;14.10;;;;;;5067153;28;19930;-78
2022/03/10 12:03:46;;;;;;;;;;;25.90;13.40;;;;;;5034803;28;20404;-78
2022/03/10 12:06:31;;;;;;;;;;;26.20;13.50;;;;;;5051088;28;19973;-78
2022/03/10 12:09:34;;;;;;;;;;;24.10;14.80;;;;;;5035295;28;23299;-78
2022/03/10 12:12:19;;;;;;;;;;;23.40;15.40;;;;;;5054922;28;19925;-78
2022/03/10 12:14:46;;;;;;;;;;;22.60;15.80;;;;;;5053260;28;19960;-84
2022/03/10 12:17:52;;;;;;;;;;;21.80;16.30;;;;;;5053072;28;19925;-78
2022/03/10 12:20:25;;;;;;;;;;;21.00;16.90;;;;;;5053169;28;19975;-77
2022/03/10 12:23:06;;;;;;;;;;;24.40;15.40;;;;;;5060888;28;20557;-82
2022/03/10 12:25:59;;;;;;;;;;;24.70;14.40;;;;;;5053150;28;20015;-83
2022/03/10 12:28:31;;;;;;;;;;;23.30;15.10;;;;;;5045541;28;20396;-77
2022/03/10 12:31:19;;;;;;;;;;;22.10;16.00;;;;;;5059848;28;19931;-78
2022/03/10 12:34:06;;;;;;;;;;;21.40;16.60;;;;;;5064933;28;19924;-81
2022/03/10 12:36:41;;;;;;;;;;;20.90;17.00;;;;;;5050681;28;19956;-78
2022/03/10 12:39:23;;;;;;;;;;;23.00;16.20;;;;;;5036038;28;19931;-84
2022/03/10 12:42:09;;;;;;;;;;;24.80;14.80;;;;;;5054997;28;19932;-82
2022/03/10 12:44:36;;;;;;;;;;;22.90;15.50;;;;;;5068889;28;19925;-78
2022/03/10 12:47:07;;;;;;;;;;;21.70;16.30;;;;;;5068854;28;20007;-78
2022/03/10 12:49:37;;;;;;;;;;;20.90;16.90;;;;;;5051145;28;19960;-83
2022/03/10 12:52:27;;;;;;;;;;;20.70;17.30;;;;;;5064733;28;20399;-82
2022/03/10 12:54:56;;;;;;;;;;;20.40;17.30;;;;;;5067958;28;20016;-78
2022/03/10 12:57:22;;;;;;;;;;;20.10;17.70;;;;;;5053759;28;20311;-82
2022/03/10 12:59:49;;;;;;;;;;;19.80;17.90;;;;;;5052477;28;19917;-79
2022/03/10 13:02:36;;;;;;;;;;;19.40;18.10;;;;;;5051581;28;19925;-78
2022/03/10 13:05:03;;;;;;;;;;;19.20;18.40;;;;;;5066513;28;19931;-79
2022/03/10 13:07:48;;;;;;;;;;;18.70;18.70;;;;;;5054215;28;20404;-81
2022/03/10 13:10:32;;;;;;;;;;;19.00;18.70;;;;;;5052458;28;19977;-78
2022/03/10 13:12:58;;;;;;;;;;;18.90;19.10;;;;;;5050524;28;20027;-81
2022/03/10 13:15:26;;;;;;;;;;;19.30;19.10;;;;;;5050399;28;20395;-80
2022/03/10 13:17:53;;;;;;;;;;;21.70;18.00;;;;;;5052132;28;19924;-78
2022/03/10 13:20:22;;;;;;;;;;;23.40;16.40;;;;;;5033625;28;19925;-78
2022/03/10 13:22:50;;;;;;;;;;;23.30;16.20;;;;;;5052331;28;19996;-77
2022/03/10 13:25:17;;;;;;;;;;;24.00;16.00;;;;;;5052251;28;19972;-80
2022/03/10 13:27:44;;;;;;;;;;;23.10;16.30;;;;;;5064595;28;19924;-80
2022/03/10 13:30:30;;;;;;;;;;;21.60;17.30;;;;;;5069070;28;20015;-81
2022/03/10 13:32:59;;;;;;;;;;;19.90;18.50;;;;;;5053349;28;19917;-81
2022/03/10 13:35:28;;;;;;;;;;;19.00;19.20;;;;;;5069340;28;20393;-82
2022/03/10 13:37:56;;;;;;;;;;;18.60;19.60;;;;;;5069489;28;19924;-80
2022/03/10 13:40:21;;;;;;;;;;;18.30;19.90;;;;;;5068790;28;19924;-81
2022/03/10 13:43:08;;;;;;;;;;;18.00;20.30;;;;;;5053054;28;19966;-78
2022/03/10 13:45:53;;;;;;;;;;;17.70;20.50;;;;;;5070149;28;19928;-78
2022/03/10 13:48:58;;;;;;;;;;;17.20;20.90;;;;;;5069240;28;19924;-78
2022/03/10 13:51:24;;;;;;;;;;;16.90;21.40;;;;;;5048844;28;19925;-78
2022/03/10 13:53:59;;;;;;;;;;;16.50;21.50;;;;;;5050333;28;20301;-81
2022/03/10 13:56:44;;;;;;;;;;;16.60;21.40;;;;;;5048960;28;19955;-78
2022/03/10 13:59:11;;;;;;;;;;;17.70;21.10;;;;;;5032353;28;20385;-78
2022/03/10 14:01:40;;;;;;;;;;;20.70;19.10;;;;;;5048897;28;19947;-78
2022/03/10 14:04:24;;;;;;;;;;;21.90;17.90;;;;;;5032210;28;19921;-79
2022/03/10 14:06:51;;;;;;;;;;;23.30;17.30;;;;;;5050375;28;20343;-79
2022/03/10 14:09:18;;;;;;;;;;;23.80;16.50;;;;;;5032686;28;19979;-82
2022/03/10 14:11:45;;;;;;;;;;;22.50;17.50;;;;;;5049567;28;19924;-78
2022/03/10 14:14:12;;;;;;;;;;;21.10;18.20;;;;;;5032485;28;19929;-81
2022/03/10 14:17:08;;;;;;;;;;;21.50;18.40;;;;;;5048449;28;19921;-78
2022/03/10 14:19:36;;;;;;;;;;;21.30;18.50;;;;;;5050566;28;20047;-82
2022/03/10 14:22:03;;;;;;;;;;;20.60;18.60;;;;;;5063630;28;20007;-81
2022/03/10 14:24:32;;;;;;;;;;;19.70;19.20;;;;;;5069499;28;20011;-82
2022/03/10 14:27:16;;;;;;;;;;;18.80;19.90;;;;;;5056052;28;19939;-78
2022/03/10 14:29:49;;;;;;;;;;;18.00;20.60;;;;;;5056458;28;20385;-78
2022/03/10 14:32:16;;;;;;;;;;;17.40;21.00;;;;;;5055625;28;20335;-78
2022/03/10 14:34:41;;;;;;;;;;;16.90;21.40;;;;;;5072656;28;19924;-81
2022/03/10 14:37:08;;;;;;;;;;;16.50;21.80;;;;;;5073723;28;20339;-81
2022/03/10 14:39:34;;;;;;;;;;;16.20;21.90;;;;;;5055626;28;19970;-79
2022/03/10 14:42:00;;;;;;;;;;;16.10;21.80;;;;;;5049561;28;19944;-78
2022/03/10 14:44:34;;;;;;;;;;;17.00;21.90;;;;;;5048934;28;19920;-80
2022/03/10 14:47:00;;;;;;;;;;;19.30;20.10;;;;;;5055618;28;19927;-81
2022/03/10 14:49:26;;;;;;;;;;;21.10;18.80;;;;;;5072516;28;19924;-80
2022/03/10 14:51:53;;;;;;;;;;;21.40;18.70;;;;;;5070369;28;19924;-77